M I D A S
Marine Information and Data Acquisition System
Tripno 2122 of the Zeeleeuw from 2011-06-17 07:37:05 to 2011-06-17 14:36:01
Back to CruiseResearch ActivitiesStationsMapUnderway DataData graphs

EquipmentUnitsComment
TimeDGPSUTC
LatitudeDGPSDM.mWGS84
LongitudeDGPSDM.mWGS84
HeadingGyrodeg 
SOGDGPSknotsSpeed over ground
COGDGPSdegCourse over ground
DepthEcho soundermeters200 kHz
Missing or incorrect values are displayed as -999
Navigation data collected by the RV Zeeleeuw from 2011-06-17 07:27:08 to 2011-06-17 15:16:07
Time Latitude Longitude Heading SOG COG Depth
2011-06-17 07:28:14 51°13.659 2°55.933 108.3 3.4 289 -999
2011-06-17 07:29:13 51°13.67 2°55.882 107.5 2.9 288 -999
2011-06-17 07:30:14 51°13.7 2°55.799 129 3.9 309 -999
2011-06-17 07:31:13 51°13.745 2°55.725 139.6 4.4 320 -999
2011-06-17 07:32:13 51°13.809 2°55.651 148 4.4 328 -999
2011-06-17 07:33:13 51°13.875 2°55.608 170.8 4 348 -999
2011-06-17 07:34:13 51°13.935 2°55.612 202.1 3.3 17 -999
2011-06-17 07:35:12 51°13.956 2°55.609 250.3 2.8 272 9.5
2011-06-17 07:36:13 51°14.015 2°55.517 329.5 6.7 330 9.5
2011-06-17 07:37:14 51°14.135 2°55.425 336.1 8.9 334 -999
2011-06-17 07:38:13 51°14.278 2°55.314 335.2 10.1 335 9.2
2011-06-17 07:39:13 51°14.431 2°55.156 325.7 11.6 325 -999
2011-06-17 07:40:11 51°14.599 2°54.986 330.2 12.9 329 10.3
2011-06-17 07:41:10 51°14.789 2°54.856 348.3 12.4 343 8.6
2011-06-17 07:42:09 51°14.979 2°54.744 337.9 12.5 331 7.9
2011-06-17 07:43:09 51°15.155 2°54.576 335 12.1 329 7.1
2011-06-17 07:44:10 51°15.336 2°54.409 336.2 12.6 330 7.8
2011-06-17 07:45:10 51°15.516 2°54.228 329.9 13 322 8.5
2011-06-17 07:46:09 51°15.681 2°54.011 329.9 13.1 324 9.2
2011-06-17 07:47:08 51°15.859 2°53.827 331.9 12.9 325 9.6
2011-06-17 07:48:09 51°16.03 2°53.606 327.8 13 322 10.1
2011-06-17 07:49:10 51°16.209 2°53.407 332.5 12.9 325 10.6
2011-06-17 07:50:10 51°16.377 2°53.193 329 12.9 323 10.9
2011-06-17 07:51:09 51°16.559 2°53.031 339.5 12.7 333 10.7
2011-06-17 07:52:10 51°16.741 2°52.856 332.7 12.5 328 9.6
2011-06-17 07:53:10 51°16.912 2°52.678 331.8 12.2 326 8.3
2011-06-17 07:54:10 51°17.09 2°52.522 341.6 12.1 337 8.7
2011-06-17 07:55:09 51°17.271 2°52.382 336 12.4 330 9.5
2011-06-17 07:56:09 51°17.448 2°52.214 335.8 12.4 330 10.2
2011-06-17 07:57:10 51°17.634 2°52.067 341.4 12.3 335 10.2
2011-06-17 07:58:09 51°17.81 2°51.918 337.4 12.1 331 9.2
2011-06-17 07:59:09 51°17.993 2°51.779 343.4 12.2 338 9.6
2011-06-17 08:00:09 51°18.177 2°51.634 338.8 12.5 332 10.5
2011-06-17 08:01:09 51°18.362 2°51.484 341 12.4 335 11.7
2011-06-17 08:02:10 51°18.553 2°51.348 342.7 12.3 335 12.9
2011-06-17 08:03:09 51°18.735 2°51.206 340.3 12.5 333 13.4
2011-06-17 08:04:10 51°18.921 2°51.051 339.9 12.5 331 13.8
2011-06-17 08:05:10 51°19.104 2°50.892 340.6 12.4 333 13.6
2011-06-17 08:06:10 51°19.289 2°50.744 339.2 12.5 332 13.4
2011-06-17 08:07:09 51°19.469 2°50.591 339.8 12.5 332 11.7
2011-06-17 08:08:09 51°19.656 2°50.444 340.3 12.6 332 11.6
2011-06-17 08:09:09 51°19.842 2°50.284 338.6 12.7 331 13
2011-06-17 08:10:09 51°20.028 2°50.131 342.7 12.3 335 14.9
2011-06-17 08:11:10 51°20.195 2°49.988 338.3 10 328 17.2
2011-06-17 08:12:09 51°20.328 2°49.859 341.2 9.4 330 19.5
2011-06-17 08:13:09 51°20.463 2°49.735 341.6 9.3 332 21
2011-06-17 08:14:10 51°20.598 2°49.61 339.4 9 327 22.1
2011-06-17 08:15:09 51°20.72 2°49.477 338.3 9 326 22.3
2011-06-17 08:16:09 51°20.843 2°49.343 340.5 8.9 327 22.3
2011-06-17 08:17:10 51°20.984 2°49.21 342.7 10.6 331 21.9
2011-06-17 08:18:09 51°21.156 2°49.061 346 12.5 336 20.8
2011-06-17 08:19:09 51°21.35 2°48.943 351 12.4 340 19.2
2011-06-17 08:20:10 51°21.547 2°48.818 347.3 12.7 336 21.8
2011-06-17 08:21:09 51°21.737 2°48.684 347 12.8 337 22.4
2011-06-17 08:22:09 51°21.932 2°48.552 349.9 12.5 340 23
2011-06-17 08:23:09 51°22.127 2°48.445 348.4 12.4 340 23.3
2011-06-17 08:24:10 51°22.324 2°48.318 347.7 12.4 340 20.2
2011-06-17 08:25:09 51°22.512 2°48.202 345.5 12.3 335 15.6
2011-06-17 08:26:09 51°22.697 2°48.072 350.5 12.1 341 17.9
2011-06-17 08:27:10 51°22.889 2°47.954 347.9 12.2 337 18.8
2011-06-17 08:28:09 51°23.076 2°47.837 350.2 12.3 341 20
2011-06-17 08:29:10 51°23.271 2°47.713 349.2 12.3 340 20.8
2011-06-17 08:30:09 51°23.458 2°47.586 345.9 12.4 335 20
2011-06-17 08:31:09 51°23.649 2°47.46 348.5 12.4 339 22.8
2011-06-17 08:32:09 51°23.84 2°47.33 347.3 12.5 337 20.2
2011-06-17 08:33:09 51°24.032 2°47.202 347.8 12.5 337 25.8
2011-06-17 08:34:09 51°24.221 2°47.06 345.5 12.5 335 27.4
2011-06-17 08:35:09 51°24.41 2°46.921 348.3 12.5 337 28.9
2011-06-17 08:36:09 51°24.599 2°46.779 346 12.6 335 29.7
2011-06-17 08:37:10 51°24.792 2°46.64 345.7 12.5 334 25.9
2011-06-17 08:38:09 51°24.976 2°46.499 346.8 12.5 336 24.4
2011-06-17 08:39:09 51°25.165 2°46.36 344.6 12.6 335 24.5
2011-06-17 08:40:10 51°25.359 2°46.22 347.6 12.5 336 23.1
2011-06-17 08:41:09 51°25.543 2°46.077 344.7 12.6 334 24.3
2011-06-17 08:42:09 51°25.732 2°45.943 347.9 12.5 336 24
2011-06-17 08:43:09 51°25.92 2°45.811 346.8 12.4 335 25.3
2011-06-17 08:44:09 51°26.107 2°45.671 345.6 12.4 334 25.2
2011-06-17 08:45:10 51°26.296 2°45.523 343.9 12.3 335 27.8
2011-06-17 08:46:09 51°26.481 2°45.387 347.8 12.4 336 27.8
2011-06-17 08:47:10 51°26.674 2°45.251 347.1 12.5 336 27.5
2011-06-17 08:48:10 51°26.862 2°45.107 347.4 12.5 335 27.8
2011-06-17 08:49:10 51°27.052 2°44.971 345.4 12.6 334 28.7
2011-06-17 08:50:09 51°27.237 2°44.823 343.1 12.6 332 25.4
2011-06-17 08:51:10 51°27.429 2°44.68 348.5 12.4 338 27.3
2011-06-17 08:52:09 51°27.618 2°44.56 348 12.5 338 27.6
2011-06-17 08:53:10 51°27.813 2°44.42 344.8 12.5 335 26.1
2011-06-17 08:54:10 51°28.002 2°44.282 345.9 12.4 336 27.9
2011-06-17 08:55:10 51°28.192 2°44.149 345.5 12.5 337 29.6
2011-06-17 08:56:10 51°28.38 2°44.013 345.4 12.4 335 30.8
2011-06-17 08:57:09 51°28.568 2°43.897 348.1 12.2 340 29.5
2011-06-17 08:58:10 51°28.76 2°43.778 346.8 12.2 340 29.3
2011-06-17 08:59:09 51°28.945 2°43.648 344.1 12.3 335 30
2011-06-17 09:00:10 51°29.134 2°43.515 345.8 12.1 337 29.3
2011-06-17 09:01:09 51°29.316 2°43.383 346.1 12.2 335 29.6
2011-06-17 09:02:09 51°29.503 2°43.264 347.7 12.3 336 30.3
2011-06-17 09:03:10 51°29.694 2°43.157 356.7 11.5 354 29.8
2011-06-17 09:04:09 51°29.869 2°43.236 26.6 11.2 24 32.3
2011-06-17 09:05:10 51°30.052 2°43.315 19.7 11.2 12 30.7
2011-06-17 09:06:09 51°30.232 2°43.388 19.3 11.4 13 32.8
2011-06-17 09:07:10 51°30.416 2°43.465 20.7 11.4 12 28.4
2011-06-17 09:08:09 51°30.59 2°43.554 23.7 11.2 17 31.3
2011-06-17 09:09:10 51°30.771 2°43.644 22.3 11.2 15 32
2011-06-17 09:10:09 51°30.95 2°43.726 23.2 11.4 19 33.4
2011-06-17 09:11:09 51°31.129 2°43.818 23.4 11.3 18 30.3
2011-06-17 09:12:09 51°31.307 2°43.9 22.2 11.1 16 33.6
2011-06-17 09:13:09 51°31.489 2°43.989 20.4 11.7 15 33.3
2011-06-17 09:14:09 51°31.67 2°44.069 23.9 11.2 16 31.1
2011-06-17 09:15:10 51°31.85 2°44.166 23.5 11.1 20 32.8
2011-06-17 09:16:10 51°32.031 2°44.253 22.5 11.5 16 32.3
2011-06-17 09:17:09 51°32.211 2°44.334 20.5 11.2 16 30.4
2011-06-17 09:18:09 51°32.391 2°44.423 22.9 11.4 19 30.6
2011-06-17 09:19:09 51°32.57 2°44.518 23 11.3 17 29.4
2011-06-17 09:20:09 51°32.753 2°44.599 21.2 11.4 15 29.6
2011-06-17 09:21:10 51°32.937 2°44.685 21.9 11.5 15 28.7
2011-06-17 09:22:09 51°33.114 2°44.774 21.4 11.4 15 26.5
2011-06-17 09:23:10 51°33.299 2°44.861 21.1 11.4 16 26.1
2011-06-17 09:24:09 51°33.479 2°44.948 22.6 11.5 16 26.3
2011-06-17 09:25:10 51°33.664 2°45.032 23 11.4 15 24.2
2011-06-17 09:26:09 51°33.839 2°45.115 21.9 11.1 18 22.8
2011-06-17 09:27:10 51°34.018 2°45.215 24.2 11.2 17 20.1
2011-06-17 09:28:09 51°34.195 2°45.297 22.1 11.1 16 17.9
2011-06-17 09:29:09 51°34.372 2°45.38 22.9 11.2 15 16
2011-06-17 09:30:09 51°34.549 2°45.468 24.4 11.2 16 12.5
2011-06-17 09:31:09 51°34.729 2°45.55 24.5 11.3 17 14.9
2011-06-17 09:32:09 51°34.903 2°45.667 29.2 11.2 21 13.9
2011-06-17 09:33:09 51°35.073 2°45.786 29.4 11.3 22 13.6
2011-06-17 09:34:09 51°35.242 2°45.911 31.3 11.2 24 13.2
2011-06-17 09:35:09 51°35.413 2°46.037 29.1 11.4 20 15.4
2011-06-17 09:36:10 51°35.601 2°46.112 19.2 11.5 11 14.9
2011-06-17 09:37:09 51°35.785 2°46.173 21.1 11.5 14 19
2011-06-17 09:38:10 51°35.968 2°46.264 23.8 11.2 15 19
2011-06-17 09:39:10 51°36.15 2°46.358 22.8 11.6 14 19.9
2011-06-17 09:40:09 51°36.328 2°46.449 23.6 11.4 19 20.3
2011-06-17 09:41:10 51°36.514 2°46.54 22.5 11.5 14 20.3
2011-06-17 09:42:10 51°36.694 2°46.642 24.9 11.6 19 21.8
2011-06-17 09:43:09 51°36.873 2°46.734 24.4 11.4 18 22.3
2011-06-17 09:44:10 51°37.054 2°46.841 26.2 11.4 21 19.6
2011-06-17 09:45:10 51°37.237 2°46.933 24.7 11.4 18 22.9
2011-06-17 09:46:10 51°37.413 2°47.042 27.9 11.3 23 23.3
2011-06-17 09:47:10 51°37.59 2°47.156 26.9 11.5 21 21.5
2011-06-17 09:48:09 51°37.764 2°47.258 28.9 11.3 20 23.4
2011-06-17 09:49:09 51°37.938 2°47.369 23.9 11.3 22 21.5
2011-06-17 09:50:10 51°38.124 2°47.465 26.8 11.5 21 22.8
2011-06-17 09:51:09 51°38.292 2°47.587 29.9 11.2 26 19.7
2011-06-17 09:52:10 51°38.472 2°47.68 27.3 11.2 21 19.4
2011-06-17 09:53:10 51°38.647 2°47.789 25.5 11 20 21.9
2011-06-17 09:54:10 51°38.82 2°47.889 28.5 11.2 25 22.1
2011-06-17 09:55:10 51°38.995 2°47.993 24 11.5 18 23.4
2011-06-17 09:56:09 51°39.168 2°48.088 24.3 11.1 19 23.8
2011-06-17 09:57:10 51°39.34 2°48.214 26 11.3 19 21.1
2011-06-17 09:58:09 51°39.514 2°48.306 25.4 11.1 20 22.8
2011-06-17 09:59:10 51°39.689 2°48.417 24.8 11.1 18 23.3
2011-06-17 10:00:09 51°39.86 2°48.514 25.6 11.1 21 20.9
2011-06-17 10:01:10 51°40.032 2°48.631 23.9 10.9 15 19.2
2011-06-17 10:02:09 51°40.199 2°48.742 29.2 11 25 25.6
2011-06-17 10:03:10 51°40.373 2°48.858 24.1 11.1 15 25.9
2011-06-17 10:04:10 51°40.551 2°48.942 23.2 11.2 20 26.7
2011-06-17 10:05:09 51°40.723 2°49.049 24.8 11.3 18 25.4
2011-06-17 10:06:10 51°40.904 2°49.148 26 11.3 21 26.2
2011-06-17 10:07:10 51°41.077 2°49.265 25.6 11.2 22 27.3
2011-06-17 10:08:10 51°41.253 2°49.36 27.6 11 24 29.5
2011-06-17 10:09:10 51°41.419 2°49.491 22.6 10.9 17 31.5
2011-06-17 10:10:10 51°41.598 2°49.572 26.4 11.2 24 29.2
2011-06-17 10:11:10 51°41.772 2°49.659 6.6 10.9 353 29.3
2011-06-17 10:12:10 51°41.913 2°49.444 319 12.7 309 28.1
2011-06-17 10:13:10 51°42.053 2°49.186 321.3 12.9 310 28.5
2011-06-17 10:14:10 51°42.192 2°48.926 321.3 12.9 311 28.2
2011-06-17 10:15:09 51°42.33 2°48.673 316 12.8 305 30.9
2011-06-17 10:16:10 51°42.349 2°48.328 256.4 13.5 246 25.1
2011-06-17 10:17:10 51°42.163 2°48.129 202.6 14.1 204 32.4
2011-06-17 10:18:10 51°41.944 2°47.978 202 14.4 204 31.5
2011-06-17 10:19:10 51°41.722 2°47.84 196 14.3 198 30.6
2011-06-17 10:20:09 51°41.504 2°47.7 202.8 14.5 206 29.4
2011-06-17 10:21:09 51°41.287 2°47.539 201.1 14.3 202 29.9
2011-06-17 10:22:10 51°41.064 2°47.388 200 14.3 202 33.6
2011-06-17 10:23:09 51°40.847 2°47.256 199.8 14.1 203 31.2
2011-06-17 10:24:10 51°40.626 2°47.102 201.9 14.2 203 31.1
2011-06-17 10:25:10 51°40.41 2°46.952 198.9 14.1 201 31.2
2011-06-17 10:26:09 51°40.192 2°46.82 198.8 14.1 202 30
2011-06-17 10:27:09 51°39.972 2°46.675 201 14.3 204 33.3
2011-06-17 10:28:09 51°39.755 2°46.523 201.7 14.3 203 34
2011-06-17 10:29:09 51°39.53 2°46.405 193.3 14.2 197 35.5
2011-06-17 10:30:10 51°39.301 2°46.294 195.7 14.2 199 35.1
2011-06-17 10:31:10 51°39.077 2°46.176 196.5 14.1 199 35
2011-06-17 10:32:09 51°38.858 2°46.061 194.4 14 195 34.5
2011-06-17 10:33:09 51°38.631 2°45.98 191 13.9 192 35.4
2011-06-17 10:34:10 51°38.4 2°45.902 189.8 13.8 192 34.6
2011-06-17 10:35:09 51°38.177 2°45.822 192.1 14 196 33.8
2011-06-17 10:36:10 51°37.949 2°45.721 193.4 14 194 35.7
2011-06-17 10:37:10 51°37.725 2°45.624 194.7 14 196 35.6
2011-06-17 10:38:09 51°37.507 2°45.514 196.1 14 198 36.3
2011-06-17 10:39:10 51°37.282 2°45.393 195.5 14 197 36.6
2011-06-17 10:40:09 51°37.063 2°45.284 196 13.9 197 38.5
2011-06-17 10:41:09 51°36.842 2°45.173 193.9 13.8 196 36.9
2011-06-17 10:42:10 51°36.615 2°45.065 196.8 14 199 36.9
2011-06-17 10:43:10 51°36.4 2°44.923 200.2 13.9 202 35.6
2011-06-17 10:44:09 51°36.186 2°44.796 197 13.9 199 38.2
2011-06-17 10:45:09 51°35.968 2°44.673 197.2 13.8 199 34.6
2011-06-17 10:46:10 51°35.748 2°44.537 199.7 14 201 36.4
2011-06-17 10:47:09 51°35.535 2°44.409 198.1 13.7 199 36.1
2011-06-17 10:48:09 51°35.32 2°44.279 199.3 13.9 201 35.2
2011-06-17 10:49:10 51°35.098 2°44.153 197.7 13.9 200 36.2
2011-06-17 10:50:09 51°34.884 2°44.029 198.2 13.9 200 35.9
2011-06-17 10:51:10 51°34.666 2°43.89 200.5 13.9 204 36.4
2011-06-17 10:52:09 51°34.454 2°43.758 196.1 13.9 198 35.4
2011-06-17 10:53:09 51°34.234 2°43.646 196.6 13.9 199 33.6
2011-06-17 10:54:09 51°34.018 2°43.517 200.7 13.9 201 32.9
2011-06-17 10:55:10 51°33.8 2°43.38 199 13.9 200 33.6
2011-06-17 10:56:10 51°33.584 2°43.252 198.3 13.8 199 33.1
2011-06-17 10:57:10 51°33.366 2°43.139 195.6 13.7 198 32.4
2011-06-17 10:58:10 51°33.159 2°42.988 214.2 13.7 216 32
2011-06-17 10:59:10 51°32.986 2°42.749 222.1 13.7 223 34.2
2011-06-17 11:00:10 51°32.836 2°42.471 230.9 13.8 230 34.3
2011-06-17 11:01:09 51°32.691 2°42.193 232.2 13.8 231 35.6
2011-06-17 11:02:10 51°32.557 2°41.888 241.9 13.8 241 35
2011-06-17 11:03:09 51°32.46 2°41.562 247.1 13.7 244 38.3
2011-06-17 11:04:10 51°32.355 2°41.229 244.2 13.8 242 37.2
2011-06-17 11:05:09 51°32.247 2°40.914 244 13.7 243 37.8
2011-06-17 11:06:09 51°32.14 2°40.59 242.4 13.8 240 36.3
2011-06-17 11:07:10 51°32.074 2°40.254 279.5 12.7 282 38.2
2011-06-17 11:08:09 51°32.227 2°40.141 4.8 11.5 3 39.3
2011-06-17 11:09:10 51°32.42 2°40.203 17 11.7 16 39.5
2011-06-17 11:10:10 51°32.607 2°40.282 19 11.8 18 39.4
2011-06-17 11:11:10 51°32.782 2°40.407 28.1 11.7 29 37.8
2011-06-17 11:12:10 51°32.959 2°40.539 24.1 11.6 25 39.3
2011-06-17 11:13:10 51°33.139 2°40.658 24 11.7 23 39.4
2011-06-17 11:14:10 51°33.317 2°40.788 23.6 11.9 23 39.2
2011-06-17 11:15:09 51°33.5 2°40.907 24.3 12 25 40
2011-06-17 11:16:10 51°33.681 2°41.04 24.3 11.7 24 40.7
2011-06-17 11:17:09 51°33.857 2°41.163 23.7 11.9 21 41
2011-06-17 11:18:09 51°34.038 2°41.283 25.5 11.8 27 41.3
2011-06-17 11:19:10 51°34.224 2°41.406 23.5 11.8 24 40.2
2011-06-17 11:20:09 51°34.399 2°41.539 27.3 12 27 40.8
2011-06-17 11:21:10 51°34.586 2°41.66 16 11.9 13 41.1
2011-06-17 11:22:10 51°34.781 2°41.73 14.8 11.9 15 41.8
2011-06-17 11:23:10 51°34.974 2°41.815 15.2 12.1 16 41.1
2011-06-17 11:24:10 51°35.167 2°41.91 18.4 12.1 18 40.5
2011-06-17 11:25:10 51°35.359 2°42.006 17 12.2 17 42.1
2011-06-17 11:26:09 51°35.554 2°42.092 15.5 12.3 18 42.2
2011-06-17 11:27:10 51°35.752 2°42.189 18.8 12.3 16 43.1
2011-06-17 11:28:09 51°35.944 2°42.28 18.9 12.1 22 42.1
2011-06-17 11:29:09 51°36.138 2°42.376 17.8 12.2 15 42.8
2011-06-17 11:30:10 51°36.335 2°42.474 19.5 12.2 17 39.7
2011-06-17 11:31:10 51°36.529 2°42.575 17.2 12.2 19 40.1
2011-06-17 11:32:10 51°36.724 2°42.661 14.6 12.3 13 39
2011-06-17 11:33:10 51°36.921 2°42.748 17.9 12.3 14 38.4
2011-06-17 11:34:10 51°37.111 2°42.856 21.2 12.1 19 39.1
2011-06-17 11:35:09 51°37.299 2°42.965 19.5 12.3 20 38.4
2011-06-17 11:36:10 51°37.497 2°43.063 19.7 12.1 21 38
2011-06-17 11:37:10 51°37.689 2°43.164 17.7 12.2 16 38.2
2011-06-17 11:38:10 51°37.886 2°43.261 19 12.4 18 38.4
2011-06-17 11:39:10 51°38.082 2°43.364 19.2 12.4 15 39
2011-06-17 11:40:10 51°38.275 2°43.469 21.1 12.3 20 38.5
2011-06-17 11:41:10 51°38.47 2°43.567 19.1 12.3 17 35.4
2011-06-17 11:42:10 51°38.667 2°43.663 17.4 12.3 15 39.4
2011-06-17 11:43:10 51°38.86 2°43.767 20.7 12.4 21 38.5
2011-06-17 11:44:09 51°39.051 2°43.867 19.9 12.2 18 40.3
2011-06-17 11:45:10 51°39.248 2°43.972 20.8 12.1 19 38.6
2011-06-17 11:46:09 51°39.438 2°44.072 19.5 12.3 18 37.9
2011-06-17 11:47:09 51°39.636 2°44.16 16.5 12.4 15 38.3
2011-06-17 11:48:10 51°39.838 2°44.254 19 12.4 17 39.2
2011-06-17 11:49:09 51°40.034 2°44.348 18.8 12.4 17 37.8
2011-06-17 11:50:10 51°40.237 2°44.447 20.7 12.5 19 38.5
2011-06-17 11:51:10 51°40.434 2°44.564 20.8 12.6 20 37.4
2011-06-17 11:52:10 51°40.632 2°44.668 20.9 12.5 18 38.1
2011-06-17 11:53:10 51°40.835 2°44.756 17.2 12.8 14 39.9
2011-06-17 11:54:09 51°41.032 2°44.857 20.5 12.7 19 37.6
2011-06-17 11:55:10 51°41.236 2°44.961 16.8 12.7 15 39.4
2011-06-17 11:56:09 51°41.436 2°45.057 21.3 12.7 20 38.4
2011-06-17 11:57:10 51°41.643 2°45.163 19 12.9 17 41.5
2011-06-17 11:58:10 51°41.844 2°45.267 19.9 12.8 18 38.2
2011-06-17 11:59:10 51°42.045 2°45.365 20.5 12.5 21 40.3
2011-06-17 12:00:10 51°42.242 2°45.5 26.5 12.8 25 39.4
2011-06-17 12:01:10 51°42.436 2°45.642 24.3 12.9 22 39.3
2011-06-17 12:02:09 51°42.632 2°45.772 23.3 13 20 39.1
2011-06-17 12:03:10 51°42.833 2°45.902 23.2 12.8 21 39.3
2011-06-17 12:04:10 51°43.028 2°46.034 26.7 12.7 25 39.3
2011-06-17 12:05:09 51°43.222 2°46.09 353.7 12.4 349 33.1
2011-06-17 12:06:10 51°43.403 2°45.93 320.2 12.2 316 37
2011-06-17 12:07:10 51°43.533 2°45.672 308.7 12.4 306 35.3
2011-06-17 12:08:10 51°43.656 2°45.405 310.7 12.6 308 40.8
2011-06-17 12:09:09 51°43.785 2°45.15 312.9 12.5 311 39.3
2011-06-17 12:10:10 51°43.92 2°44.885 310.7 12.5 309 35.5
2011-06-17 12:11:09 51°44.05 2°44.63 311.7 12.5 310 32.4
2011-06-17 12:12:10 51°44.143 2°44.338 282.5 12.1 278 38.8
2011-06-17 12:13:10 51°44.067 2°44.051 230.2 11.9 226 37
2011-06-17 12:14:10 51°43.881 2°43.929 192.2 12.5 189 36.6
2011-06-17 12:15:10 51°43.673 2°43.881 193.1 12.6 191 36.9
2011-06-17 12:16:10 51°43.474 2°43.794 199.2 12.4 197 40.5
2011-06-17 12:17:10 51°43.275 2°43.696 199.7 12.5 197 36.6
2011-06-17 12:18:09 51°43.079 2°43.613 196.5 12.4 194 38.5
2011-06-17 12:19:10 51°42.875 2°43.536 195.9 12.4 193 33.8
2011-06-17 12:20:09 51°42.678 2°43.462 197.1 12.5 195 35.9
2011-06-17 12:21:10 51°42.478 2°43.367 197.3 12.3 194 37.9
2011-06-17 12:22:10 51°42.28 2°43.28 199.3 12.4 197 35.9
2011-06-17 12:23:09 51°42.085 2°43.197 197.7 12.3 196 38.4
2011-06-17 12:24:10 51°41.883 2°43.121 196.1 12.4 193 38.2
2011-06-17 12:25:09 51°41.689 2°43.031 201.2 12.3 199 36.1
2011-06-17 12:26:10 51°41.495 2°42.921 200.4 12.2 198 35.2
2011-06-17 12:27:09 51°41.307 2°42.818 201.9 12.1 199 34.5
2011-06-17 12:28:10 51°41.11 2°42.728 196.8 12.1 194 33.4
2011-06-17 12:29:09 51°40.919 2°42.647 199.3 12 197 35.9
2011-06-17 12:30:10 51°40.725 2°42.549 198.8 12 196 33.5
2011-06-17 12:31:10 51°40.531 2°42.471 196.6 12 195 32.3
2011-06-17 12:32:10 51°40.339 2°42.384 199.5 12 197 33.6
2011-06-17 12:33:10 51°40.148 2°42.295 198.1 12 196 33.5
2011-06-17 12:34:10 51°39.955 2°42.214 197.6 12 195 27.2
2011-06-17 12:35:10 51°39.763 2°42.132 197.1 11.9 195 30.6
2011-06-17 12:36:09 51°39.579 2°42.029 203.6 11.9 201 30.8
2011-06-17 12:37:10 51°39.389 2°41.92 201.8 12 199 27.5
2011-06-17 12:38:10 51°39.2 2°41.835 198.2 11.7 195 27
2011-06-17 12:39:10 51°39.013 2°41.742 201.6 11.7 198 25.5
2011-06-17 12:40:10 51°38.828 2°41.647 200.3 11.7 197 23
2011-06-17 12:41:09 51°38.644 2°41.568 198.1 11.6 194 19.9
2011-06-17 12:42:10 51°38.453 2°41.496 201.1 11.5 196 19.3
2011-06-17 12:43:09 51°38.278 2°41.386 205 11.5 201 23.8
2011-06-17 12:44:10 51°38.093 2°41.282 201.2 11.4 198 26.2
2011-06-17 12:45:09 51°37.915 2°41.187 203.2 11.3 200 25.5
2011-06-17 12:46:10 51°37.735 2°41.077 203.2 11.5 199 20.7
2011-06-17 12:47:10 51°37.553 2°40.99 200.3 11.3 197 25.3
2011-06-17 12:48:10 51°37.374 2°40.889 205.7 11.4 203 23.4
2011-06-17 12:49:10 51°37.201 2°40.774 205.2 11.2 203 21.9
2011-06-17 12:50:09 51°37.026 2°40.673 202.3 11.3 196 21.8
2011-06-17 12:51:10 51°36.847 2°40.565 206 11.3 202 24.3
2011-06-17 12:52:09 51°36.677 2°40.451 204.3 11.3 200 24.2
2011-06-17 12:53:10 51°36.495 2°40.35 201.9 11.4 199 25.7
2011-06-17 12:54:09 51°36.324 2°40.238 206.1 11.3 203 27.2
2011-06-17 12:55:10 51°36.145 2°40.13 202.7 11.3 200 28.3
2011-06-17 12:56:10 51°35.97 2°40.017 205.9 11.3 202 29.2
2011-06-17 12:57:09 51°35.793 2°39.926 198.5 11.4 196 30.8
2011-06-17 12:58:10 51°35.608 2°39.842 201.1 11.3 198 31.3
2011-06-17 12:59:09 51°35.432 2°39.742 202.7 11.4 199 32.5
2011-06-17 13:00:10 51°35.246 2°39.658 198.8 11.3 195 30.2
2011-06-17 13:01:09 51°35.07 2°39.568 201.7 11.2 198 30.5
2011-06-17 13:02:09 51°34.892 2°39.48 201.1 11.3 197 31.1
2011-06-17 13:03:10 51°34.711 2°39.383 201.6 11.2 198 30.1
2011-06-17 13:04:09 51°34.535 2°39.3 200.4 11.3 196 28.8
2011-06-17 13:05:10 51°34.356 2°39.2 203.3 11.2 201 29.4
2011-06-17 13:06:10 51°34.18 2°39.104 200.7 11.2 196 28.3
2011-06-17 13:07:10 51°34 2°39.021 201.8 11.3 198 28.8
2011-06-17 13:08:10 51°33.825 2°38.922 202.8 11.1 199 27.1
2011-06-17 13:09:09 51°33.647 2°38.847 198 11.2 194 26.3
2011-06-17 13:10:09 51°33.467 2°38.766 202.5 11.2 198 24.9
2011-06-17 13:11:10 51°33.288 2°38.666 203.1 11.1 199 22.1
2011-06-17 13:12:09 51°33.113 2°38.579 199.4 11.4 194 23.1
2011-06-17 13:13:10 51°32.929 2°38.501 200.5 11.3 195 20.9
2011-06-17 13:14:10 51°32.75 2°38.409 202.6 11.3 198 17.4
2011-06-17 13:15:09 51°32.573 2°38.329 201.3 11.2 197 18.5
2011-06-17 13:16:10 51°32.391 2°38.236 202.8 11.3 198 19
2011-06-17 13:17:09 51°32.21 2°38.158 199.2 11.5 194 17.8
2011-06-17 13:18:10 51°32.023 2°38.084 199.8 11.3 194 18
2011-06-17 13:19:09 51°31.843 2°38.009 200.6 11.3 195 17.2
2011-06-17 13:20:09 51°31.662 2°37.926 200.8 11.3 194 15.7
2011-06-17 13:21:09 51°31.478 2°37.861 198.7 11.3 191 16
2011-06-17 13:22:09 51°31.3 2°37.775 203.8 11.1 198 19.9
2011-06-17 13:23:10 51°31.116 2°37.7 199.9 11.2 192 17.2
2011-06-17 13:24:09 51°30.938 2°37.641 203.3 10.8 197 18.6
2011-06-17 13:25:10 51°30.767 2°37.53 206.9 11 201 22.3
2011-06-17 13:26:10 51°30.594 2°37.426 205.4 11.1 200 24.3
2011-06-17 13:27:10 51°30.418 2°37.333 203.1 11.2 198 24.8
2011-06-17 13:28:10 51°30.244 2°37.234 206.2 11 202 27.2
2011-06-17 13:29:09 51°30.075 2°37.132 205 11.1 200 27.9
2011-06-17 13:30:10 51°29.898 2°37.036 201.8 11.1 198 27.9
2011-06-17 13:31:09 51°29.727 2°36.938 206.2 11 201 27.6
2011-06-17 13:32:10 51°29.551 2°36.836 203.7 11.1 199 29.9
2011-06-17 13:33:09 51°29.379 2°36.739 204 11.1 200 30.5
2011-06-17 13:34:10 51°29.2 2°36.68 179.8 11.4 169 28.8
2011-06-17 13:35:09 51°29.035 2°36.85 145.2 12.7 136 29.1
2011-06-17 13:36:09 51°28.883 2°37.085 149 12.5 142 37.9
2011-06-17 13:37:09 51°28.711 2°37.267 155.3 12.3 147 39.6
2011-06-17 13:38:09 51°28.547 2°37.463 148.4 12.4 140 39.2
2011-06-17 13:39:09 51°28.384 2°37.663 150.5 12.4 143 37.8
2011-06-17 13:40:09 51°28.222 2°37.868 149.4 12.4 142 40
2011-06-17 13:41:09 51°28.063 2°38.074 150.6 12.2 142 40.1
2011-06-17 13:42:09 51°27.905 2°38.282 148.7 12.4 140 36
2011-06-17 13:43:09 51°27.748 2°38.493 147.9 12.4 138 35.5
2011-06-17 13:44:10 51°27.592 2°38.72 147 12.4 138 35.2
2011-06-17 13:45:10 51°27.433 2°38.926 150.4 12.3 141 35.9
2011-06-17 13:46:09 51°27.28 2°39.135 147.5 12.4 138 36.6
2011-06-17 13:47:09 51°27.13 2°39.365 144.1 12.4 137 35.9
2011-06-17 13:48:09 51°26.98 2°39.593 145.6 12.4 136 35.4
2011-06-17 13:49:09 51°26.84 2°39.841 138 12.7 128 34.5
2011-06-17 13:50:09 51°26.697 2°40.084 146.4 12.3 139 33.6
2011-06-17 13:51:10 51°26.53 2°40.285 152 12.3 143 33.7
2011-06-17 13:52:09 51°26.37 2°40.479 149.9 12.4 142 34.6
2011-06-17 13:53:10 51°26.21 2°40.699 147.1 12.4 140 33.3
2011-06-17 13:54:10 51°26.05 2°40.91 151.7 12.3 144 31.9
2011-06-17 13:55:10 51°25.884 2°41.096 151.8 12.3 144 30.9
2011-06-17 13:56:10 51°25.722 2°41.299 148.2 12.5 140 31.3
2011-06-17 13:57:10 51°25.559 2°41.503 150.3 12.3 143 28.7
2011-06-17 13:58:10 51°25.395 2°41.695 150.5 12.2 144 28.9
2011-06-17 13:59:10 51°25.229 2°41.884 152 12.2 143 27.4
2011-06-17 14:00:10 51°25.071 2°42.089 148.7 12.4 140 27.8
2011-06-17 14:01:10 51°24.914 2°42.299 149 12.2 139 27.2
2011-06-17 14:02:10 51°24.755 2°42.498 152.6 12.1 143 26.5
2011-06-17 14:03:10 51°24.593 2°42.69 151.9 12.2 143 26.1
2011-06-17 14:04:10 51°24.432 2°42.891 148 12.4 140 23.9
2011-06-17 14:05:10 51°24.276 2°43.11 148.8 12.4 141 26.2
2011-06-17 14:06:10 51°24.111 2°43.303 152.4 12.3 144 29.3
2011-06-17 14:07:10 51°23.947 2°43.502 150.7 12.3 143 29.5
2011-06-17 14:08:10 51°23.787 2°43.712 148.2 12.5 140 28.8
2011-06-17 14:09:10 51°23.625 2°43.918 152.8 12.4 143 27.6
2011-06-17 14:10:10 51°23.461 2°44.118 151.1 12.4 142 29.6
2011-06-17 14:11:10 51°23.3 2°44.323 148.5 12.4 139 29.7
2011-06-17 14:12:10 51°23.141 2°44.529 150 12.3 144 29.6
2011-06-17 14:13:09 51°22.989 2°44.745 142.7 12.6 135 28.2
2011-06-17 14:14:10 51°22.838 2°44.979 143.7 12.4 137 27.8
2011-06-17 14:15:10 51°22.686 2°45.201 144.5 12.4 137 25.3
2011-06-17 14:16:10 51°22.529 2°45.411 151.4 12.3 144 27.4
2011-06-17 14:17:10 51°22.363 2°45.601 151.3 12.2 145 24.6
2011-06-17 14:18:10 51°22.201 2°45.799 147.4 12.3 140 24.1
2011-06-17 14:19:10 51°22.049 2°46.021 143.8 12.5 136 23.9
2011-06-17 14:20:10 51°21.896 2°46.244 146.4 12.4 140 25.2
2011-06-17 14:21:10 51°21.742 2°46.468 145.4 12.5 137 27.3
2011-06-17 14:22:09 51°21.591 2°46.686 146.7 12.4 138 27.5
2011-06-17 14:23:09 51°21.428 2°46.885 152.3 12.4 144 27.3
2011-06-17 14:24:10 51°21.261 2°47.088 149.3 12.5 141 26.4
2011-06-17 14:25:10 51°21.099 2°47.296 147.3 12.5 140 24.3
2011-06-17 14:26:09 51°20.938 2°47.496 150.9 12.3 145 20.6
2011-06-17 14:27:10 51°20.767 2°47.695 148.9 12.5 143 21.3
2011-06-17 14:28:10 51°20.604 2°47.903 148.6 12.5 141 22.7
2011-06-17 14:29:10 51°20.438 2°48.101 148.9 12.5 142 23.9
2011-06-17 14:30:10 51°20.274 2°48.304 151.8 12.3 144 24.9
2011-06-17 14:31:10 51°20.108 2°48.5 148.1 12.5 140 25
2011-06-17 14:32:10 51°19.951 2°48.718 146.5 12.5 139 24.4
2011-06-17 14:33:10 51°19.793 2°48.932 148.5 12.3 141 22.1
2011-06-17 14:34:10 51°19.629 2°49.128 150.5 12.3 143 19.9
2011-06-17 14:35:10 51°19.476 2°49.349 143 12.5 136 17.5
2011-06-17 14:36:09 51°19.326 2°49.568 146.9 12.4 141 15.8
2011-06-17 14:37:09 51°19.164 2°49.774 146.4 12.4 140 13.9
2011-06-17 14:38:10 51°19.007 2°49.996 144.5 12.4 139 14.5
2011-06-17 14:39:10 51°18.851 2°50.217 144.1 12.5 139 15.9
2011-06-17 14:40:09 51°18.694 2°50.424 148 12.4 142 16.9
2011-06-17 14:41:10 51°18.533 2°50.64 142.1 12.6 136 16.9
2011-06-17 14:42:10 51°18.381 2°50.866 143.3 12.5 138 16.1
2011-06-17 14:43:10 51°18.222 2°51.07 148.2 12.2 142 15.3
2011-06-17 14:44:10 51°18.066 2°51.284 142.7 12.5 136 14.4
2011-06-17 14:45:10 51°17.911 2°51.5 147.5 12.2 142 13.1
2011-06-17 14:46:10 51°17.751 2°51.701 145.8 12.3 141 12.5
2011-06-17 14:47:09 51°17.597 2°51.91 144.5 12.4 138 13
2011-06-17 14:48:09 51°17.444 2°52.131 146 12.3 141 13.8
2011-06-17 14:49:10 51°17.279 2°52.333 147.2 12.3 141 12.9
2011-06-17 14:50:09 51°17.119 2°52.523 152.5 12.1 149 12.3
2011-06-17 14:51:10 51°16.942 2°52.687 153.8 12.2 148 12.4
2011-06-17 14:52:10 51°16.766 2°52.842 160.9 12.1 156 12.4
2011-06-17 14:53:10 51°16.585 2°52.986 156.9 12.3 151 14.2
2011-06-17 14:54:10 51°16.405 2°53.14 160.3 12.1 156 14.4
2011-06-17 14:55:10 51°16.22 2°53.265 160.5 12.2 154 14.4
2011-06-17 14:56:10 51°16.034 2°53.391 166.5 12 161 14
2011-06-17 14:57:10 51°15.848 2°53.51 160.2 12.1 155 14.5
2011-06-17 14:58:10 51°15.666 2°53.65 153.8 12.3 147 14.4
2011-06-17 14:59:10 51°15.514 2°53.877 140 12.6 136 14.7
2011-06-17 15:00:10 51°15.356 2°54.091 143.7 12.5 137 14.4
2011-06-17 15:01:10 51°15.2 2°54.308 145.6 12.3 141 12.3
2011-06-17 15:02:10 51°15.038 2°54.506 150.3 12.3 144 12.2
2011-06-17 15:03:10 51°14.875 2°54.706 151.4 12.3 144 12.9
2011-06-17 15:04:09 51°14.715 2°54.891 153.2 12.1 147 13.4
2011-06-17 15:05:10 51°14.533 2°55.022 161.1 11.9 160 14
2011-06-17 15:06:10 51°14.365 2°55.175 145 11 145 12.5
2011-06-17 15:07:10 51°14.243 2°55.303 149.2 7.9 150 12.9
2011-06-17 15:08:13 51°14.132 2°55.413 146.9 7.3 148 -999
2011-06-17 15:09:14 51°14.026 2°55.493 157.6 6.6 158 -999
2011-06-17 15:10:13 51°13.931 2°55.547 160.5 6 161 -999
2011-06-17 15:11:13 51°13.839 2°55.61 154.3 6.1 153 12.5
2011-06-17 15:12:13 51°13.759 2°55.698 139.4 5.3 137 -999
2011-06-17 15:13:13 51°13.708 2°55.796 126.2 4.4 125 14.2
2011-06-17 15:14:10 51°13.674 2°55.878 124.8 3.6 123 12
2011-06-17 15:15:09 51°13.652 2°55.958 110.4 3.4 108 12.7